Aviation Digital Data Service (ADDS)

Output produced by TAFs form (1355 UTC 30 August 2015)
found at http://www.aviationweather.gov/adds/tafs/
 
KMRB 301128Z 3012/3112 00000KT 3SM BR SKC 
     FM301300 VRB03KT P6SM SCT250 
     FM302000 23006KT P6SM BKN140